Weather at Aérodrome de Saint-Junien

Public forecast

Using degrees Celsius for public forecast. Weather courtesy of forecast.io.

Closest aviation weather report (METAR) to Aérodrome de Saint-Junien

Report is more than 6 hours old.

Closest report is Limoges Airport, 11.1 nm (20.6 km) ESE.

2022/11/14 15:30 (retrieved 2 years ago)

LFBL 141530Z AUTO /////KT 9999 BKN007 BKN012 OVC019 11/11 Q1014

Closest aviation forecast (TAF) to Aérodrome de Saint-Junien

Forecast is more than 12 hours old.

Closest forecast is Limoges Airport, 11.1 nm (20.6 km) ESE.

2023/02/22 18:15 Ammendment (retrieved 1 year ago)

TAF AMD LFBL 221810Z 2218/2318 27010KT 9999 BKN010 OVC020 TEMPO 2218/2312 2000 RA OVC005 TEMPO 2312/2318 3000 SHRA BKN005 FEW014CB BKN015TCU